CMA278 EDDF-LFML
Flight info
| Callsign | CMA278 |
|---|---|
| Flight time | 1h 15m |
| Altitude | 35000 |
| Route | ANEKI2L/18 ANEKI Y163 HERBI/N0466F370 Y164 MOPAN DCT LUTIX DCT BENOT DCT NEMOS DCT GEVEA DCT INCUS DCT BALSI |
| Aircraft | B77L/H-SDE1E2E3FGHIJ2J3J4J5M1RWXY/LB1D1 |
Departure
| Time | 2026-05-04 08:37 |
|---|---|
| Airport | Frankfurt Main Airport (EDDF) |
Arrival
| Time | 2026-05-04 09:53 |
|---|---|
| Airport | Marseille Provence Airport (LFML) |
| Time | Latitude | Longitude | Altitude | Speed | Heading |
|---|---|---|---|---|---|
| 2026-05-04 08:14 | 50.04002 | 8.54539 | 363 ft | 0 kts | 249° |
| 2026-05-04 08:29 | 50.04003 | 8.54544 | 353 ft | 3 kts | 250° |
| 2026-05-04 08:29 | 50.04012 | 8.54583 | 361 ft | 4 kts | 250° |
| 2026-05-04 08:29 | 50.04022 | 8.54622 | 363 ft | 4 kts | 242° |
| 2026-05-04 08:31 | 50.04027 | 8.54661 | 363 ft | 0 kts | 159° |
| 2026-05-04 08:33 | 50.04002 | 8.54676 | 360 ft | 3 kts | 159° |
| 2026-05-04 08:33 | 50.03981 | 8.54688 | 361 ft | 3 kts | 159° |
| 2026-05-04 08:35 | 50.03639 | 8.53557 | 356 ft | 28 kts | 248° |
| 2026-05-04 08:35 | 50.03568 | 8.53269 | 353 ft | 29 kts | 249° |
| 2026-05-04 08:35 | 50.03501 | 8.52988 | 351 ft | 24 kts | 250° |
| 2026-05-04 08:35 | 50.03440 | 8.52759 | 337 ft | 15 kts | 249° |
| 2026-05-04 08:37 | 50.01882 | 8.52612 | 365 ft | 170 kts | 179° |
| 2026-05-04 08:37 | 50.00661 | 8.52677 | 985 ft | 180 kts | 179° |
| 2026-05-04 08:37 | 49.99379 | 8.52738 | 1852 ft | 183 kts | 180° |
| 2026-05-04 08:38 | 49.98117 | 8.52790 | 2794 ft | 187 kts | 180° |
| 2026-05-04 08:38 | 49.96765 | 8.52881 | 3378 ft | 198 kts | 179° |
| 2026-05-04 08:38 | 49.95345 | 8.52980 | 3949 ft | 216 kts | 179° |
| 2026-05-04 08:40 | 49.82698 | 8.53836 | 8910 ft | 273 kts | 179° |
| 2026-05-04 08:40 | 49.80784 | 8.53970 | 9951 ft | 277 kts | 179° |
| 2026-05-04 08:40 | 49.78836 | 8.54107 | 10746 ft | 288 kts | 179° |
| 2026-05-04 08:41 | 49.76732 | 8.54137 | 11029 ft | 317 kts | 185° |
| 2026-05-04 08:41 | 49.74429 | 8.53866 | 11278 ft | 346 kts | 187° |
| 2026-05-04 08:41 | 49.71985 | 8.53485 | 11992 ft | 359 kts | 187° |
| 2026-05-04 08:41 | 49.69475 | 8.53092 | 12911 ft | 366 kts | 187° |
| 2026-05-04 08:42 | 49.66924 | 8.52710 | 13933 ft | 370 kts | 187° |
| 2026-05-04 08:42 | 49.64347 | 8.52342 | 14874 ft | 374 kts | 187° |
| 2026-05-04 08:42 | 49.61742 | 8.51983 | 15807 ft | 377 kts | 187° |
| 2026-05-04 08:42 | 49.59123 | 8.51630 | 16725 ft | 381 kts | 187° |
| 2026-05-04 08:43 | 49.56463 | 8.51276 | 17617 ft | 385 kts | 187° |
| 2026-05-04 08:43 | 49.53779 | 8.50920 | 18475 ft | 389 kts | 187° |
| 2026-05-04 08:43 | 49.51065 | 8.50561 | 19237 ft | 393 kts | 187° |
| 2026-05-04 08:43 | 49.48323 | 8.50198 | 19992 ft | 397 kts | 187° |
| 2026-05-04 08:44 | 49.45555 | 8.49833 | 20736 ft | 402 kts | 187° |
| 2026-05-04 08:44 | 49.42755 | 8.49462 | 21467 ft | 406 kts | 187° |
| 2026-05-04 08:46 | 49.22348 | 8.46816 | 26080 ft | 432 kts | 187° |
| 2026-05-04 08:46 | 49.19333 | 8.46436 | 26661 ft | 436 kts | 187° |
| 2026-05-04 08:46 | 49.16296 | 8.46053 | 27218 ft | 440 kts | 187° |
| 2026-05-04 08:46 | 49.13236 | 8.45666 | 27787 ft | 443 kts | 187° |
| 2026-05-04 08:47 | 49.10152 | 8.45278 | 28355 ft | 446 kts | 187° |
| 2026-05-04 08:47 | 49.07051 | 8.44853 | 28912 ft | 448 kts | 189° |
| 2026-05-04 08:47 | 49.03974 | 8.44068 | 29418 ft | 450 kts | 195° |
| 2026-05-04 08:47 | 49.00967 | 8.42968 | 29912 ft | 452 kts | 195° |
| 2026-05-04 08:48 | 48.97893 | 8.41854 | 30377 ft | 454 kts | 195° |
| 2026-05-04 08:48 | 48.94830 | 8.40764 | 30965 ft | 452 kts | 195° |
| 2026-05-04 08:48 | 48.91773 | 8.39692 | 31637 ft | 448 kts | 195° |
| 2026-05-04 08:48 | 48.88750 | 8.38638 | 32268 ft | 444 kts | 195° |
| 2026-05-04 08:49 | 48.85743 | 8.37589 | 32849 ft | 442 kts | 195° |
| 2026-05-04 08:50 | 48.67894 | 8.31223 | 35373 ft | 440 kts | 196° |
| 2026-05-04 08:50 | 48.64920 | 8.30138 | 35745 ft | 439 kts | 196° |
| 2026-05-04 08:51 | 48.61953 | 8.29058 | 36065 ft | 440 kts | 196° |
| 2026-05-04 08:51 | 48.58956 | 8.27970 | 36017 ft | 444 kts | 196° |
| 2026-05-04 08:51 | 48.52967 | 8.25803 | 36020 ft | 440 kts | 196° |
| 2026-05-04 08:52 | 48.47041 | 8.23666 | 36028 ft | 436 kts | 196° |
| 2026-05-04 08:52 | 48.42110 | 8.21871 | 36185 ft | 442 kts | 196° |
| 2026-05-04 08:53 | 48.39119 | 8.20779 | 36526 ft | 441 kts | 196° |
| 2026-05-04 08:54 | 48.18745 | 8.11243 | 37029 ft | 434 kts | 208° |
| 2026-05-04 08:55 | 48.13344 | 8.07211 | 37013 ft | 434 kts | 207° |
| 2026-05-04 08:55 | 48.07928 | 8.03204 | 37016 ft | 434 kts | 207° |
| 2026-05-04 09:01 | 47.50347 | 7.61285 | 37052 ft | 439 kts | 207° |
| 2026-05-04 09:01 | 47.44863 | 7.57346 | 37038 ft | 438 kts | 207° |
| 2026-05-04 09:02 | 47.39376 | 7.53414 | 37040 ft | 438 kts | 207° |
| 2026-05-04 09:02 | 47.33904 | 7.49500 | 37031 ft | 437 kts | 207° |
| 2026-05-04 09:03 | 47.28433 | 7.45589 | 37068 ft | 437 kts | 207° |
| 2026-05-04 09:03 | 47.22949 | 7.41687 | 37059 ft | 438 kts | 207° |
| 2026-05-04 09:04 | 47.17670 | 7.37229 | 37044 ft | 438 kts | 218° |
| 2026-05-04 09:04 | 47.13196 | 7.31163 | 37038 ft | 439 kts | 230° |
| 2026-05-04 09:05 | 47.09443 | 7.24101 | 37036 ft | 439 kts | 231° |
| 2026-05-04 09:05 | 47.05663 | 7.17050 | 37045 ft | 440 kts | 231° |
| 2026-05-04 09:06 | 47.01832 | 7.10055 | 37030 ft | 441 kts | 230° |
| 2026-05-04 09:07 | 46.87792 | 6.86527 | 37018 ft | 439 kts | 219° |
| 2026-05-04 09:08 | 46.85412 | 6.83735 | 37020 ft | 438 kts | 219° |
| 2026-05-04 09:08 | 46.80677 | 6.78158 | 37025 ft | 437 kts | 219° |
| 2026-05-04 09:09 | 46.75960 | 6.72569 | 37012 ft | 436 kts | 219° |
| 2026-05-04 09:09 | 46.71254 | 6.66986 | 37025 ft | 436 kts | 219° |
| 2026-05-04 09:10 | 46.66544 | 6.61407 | 37038 ft | 436 kts | 219° |
| 2026-05-04 09:10 | 46.61828 | 6.55833 | 37046 ft | 437 kts | 219° |
| 2026-05-04 09:11 | 46.57098 | 6.50258 | 37041 ft | 438 kts | 219° |
| 2026-05-04 09:11 | 46.52365 | 6.44692 | 37071 ft | 438 kts | 219° |
| 2026-05-04 09:12 | 46.47631 | 6.39135 | 37047 ft | 438 kts | 219° |
| 2026-05-04 09:14 | 46.28731 | 6.17132 | 37053 ft | 434 kts | 216° |
| 2026-05-04 09:14 | 46.23337 | 6.13241 | 37052 ft | 436 kts | 201° |
| 2026-05-04 09:15 | 46.17400 | 6.11285 | 37060 ft | 440 kts | 191° |
| 2026-05-04 09:15 | 46.11329 | 6.10035 | 37054 ft | 441 kts | 191° |
| 2026-05-04 09:17 | 45.83911 | 6.04052 | 37049 ft | 444 kts | 192° |
| 2026-05-04 09:18 | 45.77845 | 6.02715 | 37047 ft | 444 kts | 192° |
| 2026-05-04 09:18 | 45.71699 | 6.01359 | 37054 ft | 444 kts | 192° |
| 2026-05-04 09:19 | 45.65638 | 6.00031 | 37082 ft | 443 kts | 192° |
| 2026-05-04 09:19 | 45.59510 | 5.98681 | 37072 ft | 442 kts | 192° |
| 2026-05-04 09:20 | 45.53468 | 5.97359 | 37064 ft | 442 kts | 192° |
| 2026-05-04 09:20 | 45.47620 | 5.95127 | 37074 ft | 432 kts | 210° |
| 2026-05-04 09:21 | 45.45163 | 5.92726 | 36888 ft | 429 kts | 224° |
| 2026-05-04 09:21 | 45.43094 | 5.89680 | 36491 ft | 429 kts | 226° |
| 2026-05-04 09:21 | 45.41026 | 5.86603 | 36163 ft | 430 kts | 226° |
| 2026-05-04 09:21 | 45.38943 | 5.83555 | 35891 ft | 428 kts | 225° |
| 2026-05-04 09:22 | 45.36868 | 5.80554 | 35380 ft | 424 kts | 224° |
| 2026-05-04 09:22 | 45.34802 | 5.77587 | 34879 ft | 420 kts | 224° |
| 2026-05-04 09:22 | 45.32752 | 5.74653 | 34379 ft | 417 kts | 224° |
| 2026-05-04 09:22 | 45.30719 | 5.71748 | 33846 ft | 413 kts | 224° |
| 2026-05-04 09:23 | 45.28698 | 5.68865 | 33305 ft | 410 kts | 224° |
| 2026-05-04 09:23 | 45.26689 | 5.66002 | 32778 ft | 408 kts | 223° |
| 2026-05-04 09:23 | 45.24695 | 5.63164 | 32281 ft | 404 kts | 223° |
| 2026-05-04 09:23 | 45.22721 | 5.60356 | 31827 ft | 401 kts | 223° |
| 2026-05-04 09:25 | 45.09225 | 5.41235 | 28587 ft | 380 kts | 223° |
| 2026-05-04 09:25 | 45.07347 | 5.38592 | 28239 ft | 381 kts | 223° |
| 2026-05-04 09:26 | 45.05462 | 5.35942 | 27918 ft | 382 kts | 223° |
| 2026-05-04 09:26 | 45.03578 | 5.33295 | 27583 ft | 382 kts | 223° |
| 2026-05-04 09:26 | 45.01696 | 5.30653 | 27234 ft | 380 kts | 223° |
| 2026-05-04 09:26 | 44.99829 | 5.28033 | 26900 ft | 377 kts | 223° |
| 2026-05-04 09:27 | 44.97995 | 5.25464 | 26578 ft | 375 kts | 223° |
| 2026-05-04 09:27 | 44.96145 | 5.22874 | 26259 ft | 374 kts | 223° |
| 2026-05-04 09:27 | 44.94299 | 5.20288 | 25933 ft | 374 kts | 223° |
| 2026-05-04 09:27 | 44.92455 | 5.17710 | 25604 ft | 373 kts | 223° |
| 2026-05-04 09:28 | 44.90613 | 5.15139 | 25278 ft | 372 kts | 223° |
| 2026-05-04 09:28 | 44.88772 | 5.12571 | 24939 ft | 371 kts | 223° |
| 2026-05-04 09:28 | 44.86956 | 5.10039 | 24629 ft | 369 kts | 223° |
| 2026-05-04 09:28 | 44.85134 | 5.07501 | 24307 ft | 367 kts | 224° |
| 2026-05-04 09:29 | 44.83325 | 5.04985 | 23992 ft | 365 kts | 224° |
| 2026-05-04 09:29 | 44.81522 | 5.02478 | 23679 ft | 363 kts | 224° |
| 2026-05-04 09:29 | 44.79728 | 4.99985 | 23304 ft | 361 kts | 224° |
| 2026-05-04 09:29 | 44.77943 | 4.97507 | 22964 ft | 359 kts | 224° |
| 2026-05-04 09:30 | 44.76173 | 4.95053 | 22653 ft | 356 kts | 223° |
| 2026-05-04 09:30 | 44.74414 | 4.92617 | 22316 ft | 353 kts | 223° |
| 2026-05-04 09:30 | 44.72647 | 4.90245 | 22017 ft | 350 kts | 219° |
| 2026-05-04 09:30 | 44.70599 | 4.88483 | 21639 ft | 344 kts | 205° |
| 2026-05-04 09:31 | 44.68435 | 4.87041 | 21293 ft | 345 kts | 206° |
| 2026-05-04 09:31 | 44.66269 | 4.85561 | 20916 ft | 348 kts | 206° |
| 2026-05-04 09:31 | 44.64087 | 4.84043 | 20540 ft | 351 kts | 206° |
| 2026-05-04 09:31 | 44.61894 | 4.82500 | 20147 ft | 353 kts | 206° |
| 2026-05-04 09:32 | 44.59706 | 4.80951 | 19787 ft | 352 kts | 206° |
| 2026-05-04 09:32 | 44.57510 | 4.79410 | 19400 ft | 353 kts | 206° |
| 2026-05-04 09:34 | 44.41599 | 4.74682 | 16920 ft | 323 kts | 190° |
| 2026-05-04 09:34 | 44.39389 | 4.74166 | 16596 ft | 322 kts | 190° |
| 2026-05-04 09:34 | 44.37172 | 4.73646 | 16293 ft | 325 kts | 190° |
| 2026-05-04 09:34 | 44.34935 | 4.73119 | 15950 ft | 327 kts | 190° |
| 2026-05-04 09:35 | 44.32689 | 4.72591 | 15612 ft | 327 kts | 190° |
| 2026-05-04 09:35 | 44.30449 | 4.72064 | 15297 ft | 326 kts | 190° |
| 2026-05-04 09:35 | 44.28212 | 4.71536 | 14943 ft | 326 kts | 190° |
| 2026-05-04 09:35 | 44.25989 | 4.71013 | 14620 ft | 321 kts | 190° |
| 2026-05-04 09:37 | 44.11133 | 4.68141 | 12368 ft | 304 kts | 168° |
| 2026-05-04 09:37 | 44.09113 | 4.69138 | 12085 ft | 312 kts | 159° |
| 2026-05-04 09:38 | 44.07786 | 4.69923 | 11879 ft | 314 kts | 159° |
| 2026-05-04 09:38 | 44.05115 | 4.71480 | 11472 ft | 314 kts | 160° |
| 2026-05-04 09:38 | 44.03099 | 4.72622 | 11170 ft | 312 kts | 160° |
| 2026-05-04 09:38 | 44.01097 | 4.73759 | 10932 ft | 309 kts | 165° |
| 2026-05-04 09:39 | 43.99127 | 4.74712 | 10500 ft | 293 kts | 163° |
| 2026-05-04 09:39 | 43.97281 | 4.75734 | 10191 ft | 277 kts | 160° |
| 2026-05-04 09:39 | 43.96106 | 4.76436 | 9992 ft | 269 kts | 160° |
| 2026-05-04 09:39 | 43.94400 | 4.77452 | 9708 ft | 265 kts | 160° |
| 2026-05-04 09:40 | 43.92719 | 4.78431 | 9417 ft | 259 kts | 160° |
| 2026-05-04 09:40 | 43.91061 | 4.79381 | 9171 ft | 257 kts | 161° |
| 2026-05-04 09:40 | 43.89407 | 4.80319 | 8935 ft | 257 kts | 161° |
| 2026-05-04 09:40 | 43.87742 | 4.81250 | 8699 ft | 261 kts | 161° |
| 2026-05-04 09:41 | 43.86040 | 4.82200 | 8378 ft | 264 kts | 161° |
| 2026-05-04 09:42 | 43.74641 | 4.88566 | 6597 ft | 248 kts | 161° |
| 2026-05-04 09:43 | 43.73050 | 4.89460 | 6377 ft | 245 kts | 160° |
| 2026-05-04 09:43 | 43.71472 | 4.90353 | 6111 ft | 245 kts | 160° |
| 2026-05-04 09:43 | 43.69943 | 4.91243 | 5836 ft | 231 kts | 160° |
| 2026-05-04 09:43 | 43.68520 | 4.92064 | 5598 ft | 215 kts | 161° |
| 2026-05-04 09:44 | 43.67159 | 4.92841 | 5389 ft | 208 kts | 161° |
| 2026-05-04 09:44 | 43.65859 | 4.93582 | 5178 ft | 202 kts | 161° |
| 2026-05-04 09:44 | 43.64590 | 4.94308 | 4966 ft | 192 kts | 161° |
| 2026-05-04 09:46 | 43.58161 | 5.00792 | 3797 ft | 137 kts | 137° |
| 2026-05-04 09:46 | 43.57535 | 5.01687 | 3595 ft | 122 kts | 137° |
| 2026-05-04 09:46 | 43.56960 | 5.02508 | 3468 ft | 118 kts | 136° |
| 2026-05-04 09:47 | 43.56396 | 5.03314 | 3301 ft | 116 kts | 136° |
| 2026-05-04 09:47 | 43.55834 | 5.04119 | 3146 ft | 117 kts | 135° |
| 2026-05-04 09:49 | 43.52029 | 5.09564 | 2079 ft | 109 kts | 131° |
| 2026-05-04 09:49 | 43.51498 | 5.10326 | 1946 ft | 111 kts | 133° |
| 2026-05-04 09:49 | 43.50958 | 5.11098 | 1791 ft | 113 kts | 133° |
| 2026-05-04 09:51 | 43.47662 | 5.15810 | 874 ft | 116 kts | 131° |
| 2026-05-04 09:51 | 43.47083 | 5.16637 | 726 ft | 124 kts | 131° |
| 2026-05-04 09:51 | 43.46498 | 5.17469 | 562 ft | 114 kts | 130° |
| 2026-05-04 09:51 | 43.45959 | 5.18248 | 400 ft | 110 kts | 131° |
| 2026-05-04 09:52 | 43.45420 | 5.19018 | 264 ft | 113 kts | 131° |
| 2026-05-04 09:52 | 43.44871 | 5.19805 | 91 ft | 120 kts | 131° |
| 2026-05-04 09:52 | 43.44298 | 5.20622 | 42 ft | 112 kts | 136° |
| 2026-05-04 09:52 | 43.43862 | 5.21236 | 41 ft | 68 kts | 134° |
| 2026-05-04 09:53 | 43.43594 | 5.21619 | 40 ft | 51 kts | 134° |
| 2026-05-04 09:53 | 43.43418 | 5.21869 | 40 ft | 23 kts | 135° |
| 2026-05-04 09:53 | 43.43338 | 5.22029 | 41 ft | 19 kts | 102° |
| 2026-05-04 09:53 | 43.43335 | 5.22190 | 42 ft | 16 kts | 84° |
| 2026-05-04 09:54 | 43.43408 | 5.22281 | 42 ft | 16 kts | 353° |
| 2026-05-04 09:54 | 43.43509 | 5.22214 | 42 ft | 16 kts | 329° |
| 2026-05-04 09:54 | 43.43604 | 5.22135 | 42 ft | 16 kts | 328° |
| 2026-05-04 09:54 | 43.43701 | 5.22059 | 42 ft | 16 kts | 332° |
| 2026-05-04 09:55 | 43.43792 | 5.21974 | 42 ft | 16 kts | 313° |
| 2026-05-04 09:55 | 43.43868 | 5.21861 | 42 ft | 16 kts | 314° |
| 2026-05-04 09:55 | 43.43946 | 5.21752 | 42 ft | 16 kts | 314° |
| 2026-05-04 09:55 | 43.43964 | 5.21618 | 42 ft | 16 kts | 232° |
| 2026-05-04 09:56 | 43.43926 | 5.21485 | 42 ft | 16 kts | 297° |
| 2026-05-04 09:56 | 43.44002 | 5.21370 | 42 ft | 16 kts | 314° |
| 2026-05-04 09:56 | 43.44081 | 5.21259 | 42 ft | 16 kts | 314° |
| 2026-05-04 09:56 | 43.44171 | 5.21171 | 42 ft | 16 kts | 357° |
| 2026-05-04 09:57 | 43.44243 | 5.21281 | 42 ft | 16 kts | 60° |
| 2026-05-04 09:57 | 43.44225 | 5.21402 | 42 ft | 12 kts | 137° |
| 2026-05-04 09:57 | 43.44212 | 5.21421 | 42 ft | 0 kts | 134° |